sensor_id;sensor_type;location;lat;lon;timestamp;temperature;humidity
52565;DHT22;38460;53.106;7.004;2023-04-01T00:00:29;9.80;99.90
52565;DHT22;38460;53.106;7.004;2023-04-01T00:02:55;9.80;99.90
52565;DHT22;38460;53.106;7.004;2023-04-01T00:05:21;9.80;99.90
52565;DHT22;38460;53.106;7.004;2023-04-01T00:07:47;9.80;99.90
52565;DHT22;38460;53.106;7.004;2023-04-01T00:10:13;9.80;99.90
52565;DHT22;38460;53.106;7.004;2023-04-01T00:12:39;9.70;99.90
52565;DHT22;38460;53.106;7.004;2023-04-01T00:15:08;9.70;99.90
52565;DHT22;38460;53.106;7.004;2023-04-01T00:17:34;9.70;99.90
52565;DHT22;38460;53.106;7.004;2023-04-01T00:20:00;9.70;99.90
52565;DHT22;38460;53.106;7.004;2023-04-01T00:22:26;9.70;99.90
52565;DHT22;38460;53.106;7.004;2023-04-01T00:24:53;9.70;99.90
52565;DHT22;38460;53.106;7.004;2023-04-01T00:27:19;9.70;99.90
52565;DHT22;38460;53.106;7.004;2023-04-01T00:29:46;9.70;99.90
52565;DHT22;38460;53.106;7.004;2023-04-01T00:32:13;9.70;99.90
52565;DHT22;38460;53.106;7.004;2023-04-01T00:34:39;9.70;99.90
52565;DHT22;38460;53.106;7.004;2023-04-01T00:37:06;9.70;99.90
52565;DHT22;38460;53.106;7.004;2023-04-01T00:39:33;9.70;99.90
52565;DHT22;38460;53.106;7.004;2023-04-01T00:42:00;9.70;99.90
52565;DHT22;38460;53.106;7.004;2023-04-01T00:44:32;9.70;99.90
52565;DHT22;38460;53.106;7.004;2023-04-01T00:46:59;9.70;99.90
52565;DHT22;38460;53.106;7.004;2023-04-01T00:49:29;9.70;99.90
52565;DHT22;38460;53.106;7.004;2023-04-01T00:51:57;9.70;99.90
52565;DHT22;38460;53.106;7.004;2023-04-01T00:54:25;9.70;99.90
52565;DHT22;38460;53.106;7.004;2023-04-01T00:57:21;9.70;99.90
52565;DHT22;38460;53.106;7.004;2023-04-01T00:59:50;9.70;99.90
52565;DHT22;38460;53.106;7.004;2023-04-01T01:02:18;9.70;99.90
52565;DHT22;38460;53.106;7.004;2023-04-01T01:04:44;9.70;99.90
52565;DHT22;38460;53.106;7.004;2023-04-01T01:15:42;9.60;99.90
52565;DHT22;38460;53.106;7.004;2023-04-01T01:18:32;9.60;99.90
52565;DHT22;38460;53.106;7.004;2023-04-01T01:26:53;9.60;99.90
52565;DHT22;38460;53.106;7.004;2023-04-01T01:38:03;9.60;99.90
52565;DHT22;38460;53.106;7.004;2023-04-01T01:40:33;9.50;99.90
52565;DHT22;38460;53.106;7.004;2023-04-01T01:43:05;9.50;99.90
52565;DHT22;38460;53.106;7.004;2023-04-01T01:45:34;9.50;99.90
52565;DHT22;38460;53.106;7.004;2023-04-01T01:48:02;9.50;99.90
52565;DHT22;38460;53.106;7.004;2023-04-01T01:50:30;9.50;99.90
52565;DHT22;38460;53.106;7.004;2023-04-01T01:53:04;9.50;99.90
52565;DHT22;38460;53.106;7.004;2023-04-01T01:55:36;9.50;99.90
52565;DHT22;38460;53.106;7.004;2023-04-01T01:58:22;9.50;99.90
52565;DHT22;38460;53.106;7.004;2023-04-01T02:00:55;9.50;99.90
52565;DHT22;38460;53.106;7.004;2023-04-01T02:03:25;9.50;99.90
52565;DHT22;38460;53.106;7.004;2023-04-01T02:05:54;9.50;99.90
52565;DHT22;38460;53.106;7.004;2023-04-01T02:08:29;9.50;99.90
52565;DHT22;38460;53.106;7.004;2023-04-01T02:11:01;9.50;99.90
52565;DHT22;38460;53.106;7.004;2023-04-01T02:13:43;9.50;99.90
52565;DHT22;38460;53.106;7.004;2023-04-01T02:16:18;9.50;99.90
52565;DHT22;38460;53.106;7.004;2023-04-01T02:18:48;9.50;99.90
52565;DHT22;38460;53.106;7.004;2023-04-01T02:21:17;9.50;99.90
52565;DHT22;38460;53.106;7.004;2023-04-01T02:23:44;9.50;99.90
52565;DHT22;38460;53.106;7.004;2023-04-01T02:26:11;9.50;99.90
52565;DHT22;38460;53.106;7.004;2023-04-01T02:28:39;9.50;99.90
52565;DHT22;38460;53.106;7.004;2023-04-01T02:31:11;9.50;99.90
52565;DHT22;38460;53.106;7.004;2023-04-01T02:33:39;9.50;99.90
52565;DHT22;38460;53.106;7.004;2023-04-01T02:36:05;9.50;99.90
52565;DHT22;38460;53.106;7.004;2023-04-01T02:38:31;9.50;99.90
52565;DHT22;38460;53.106;7.004;2023-04-01T02:41:00;9.50;99.90
52565;DHT22;38460;53.106;7.004;2023-04-01T02:43:28;9.50;99.90
52565;DHT22;38460;53.106;7.004;2023-04-01T02:45:54;9.50;99.90
52565;DHT22;38460;53.106;7.004;2023-04-01T02:48:20;9.50;99.90
52565;DHT22;38460;53.106;7.004;2023-04-01T02:50:46;9.50;99.90
52565;DHT22;38460;53.106;7.004;2023-04-01T02:53:12;9.50;99.90
52565;DHT22;38460;53.106;7.004;2023-04-01T02:55:37;9.50;99.90
52565;DHT22;38460;53.106;7.004;2023-04-01T02:58:04;9.50;99.90
52565;DHT22;38460;53.106;7.004;2023-04-01T03:00:30;9.50;99.90
52565;DHT22;38460;53.106;7.004;2023-04-01T03:02:56;9.50;99.90
52565;DHT22;38460;53.106;7.004;2023-04-01T03:05:22;9.50;99.90
52565;DHT22;38460;53.106;7.004;2023-04-01T03:07:48;9.50;99.90
52565;DHT22;38460;53.106;7.004;2023-04-01T03:10:14;9.50;99.90
52565;DHT22;38460;53.106;7.004;2023-04-01T03:12:40;9.50;99.90
52565;DHT22;38460;53.106;7.004;2023-04-01T03:15:06;9.50;99.90
52565;DHT22;38460;53.106;7.004;2023-04-01T03:17:32;9.50;99.90
52565;DHT22;38460;53.106;7.004;2023-04-01T03:19:58;9.50;99.90
52565;DHT22;38460;53.106;7.004;2023-04-01T03:22:24;9.50;99.90
52565;DHT22;38460;53.106;7.004;2023-04-01T03:24:49;9.50;99.90
52565;DHT22;38460;53.106;7.004;2023-04-01T03:27:15;9.50;99.90
52565;DHT22;38460;53.106;7.004;2023-04-01T03:29:41;9.50;99.90
52565;DHT22;38460;53.106;7.004;2023-04-01T03:32:07;9.50;99.90
52565;DHT22;38460;53.106;7.004;2023-04-01T03:34:33;9.50;99.90
52565;DHT22;38460;53.106;7.004;2023-04-01T03:36:58;9.50;99.90
52565;DHT22;38460;53.106;7.004;2023-04-01T03:39:24;9.50;99.90
52565;DHT22;38460;53.106;7.004;2023-04-01T03:41:50;9.50;99.90
52565;DHT22;38460;53.106;7.004;2023-04-01T03:44:16;9.50;99.90
52565;DHT22;38460;53.106;7.004;2023-04-01T03:46:42;9.50;99.90
52565;DHT22;38460;53.106;7.004;2023-04-01T03:49:09;9.50;99.90
52565;DHT22;38460;53.106;7.004;2023-04-01T03:51:42;9.50;99.90
52565;DHT22;38460;53.106;7.004;2023-04-01T03:54:09;9.50;99.90
52565;DHT22;38460;53.106;7.004;2023-04-01T03:56:35;9.50;99.90
52565;DHT22;38460;53.106;7.004;2023-04-01T03:59:05;9.50;99.90
52565;DHT22;38460;53.106;7.004;2023-04-01T04:01:31;9.50;99.90
52565;DHT22;38460;53.106;7.004;2023-04-01T04:03:57;9.50;99.90
52565;DHT22;38460;53.106;7.004;2023-04-01T04:06:24;9.50;99.90
52565;DHT22;38460;53.106;7.004;2023-04-01T04:08:50;9.50;99.90
52565;DHT22;38460;53.106;7.004;2023-04-01T04:11:18;9.50;99.90
52565;DHT22;38460;53.106;7.004;2023-04-01T04:13:44;9.50;99.90
52565;DHT22;38460;53.106;7.004;2023-04-01T04:16:11;9.50;99.90
52565;DHT22;38460;53.106;7.004;2023-04-01T04:18:37;9.50;99.90
52565;DHT22;38460;53.106;7.004;2023-04-01T04:21:03;9.50;99.90
52565;DHT22;38460;53.106;7.004;2023-04-01T04:23:29;9.50;99.90
52565;DHT22;38460;53.106;7.004;2023-04-01T04:26:06;9.50;99.90
52565;DHT22;38460;53.106;7.004;2023-04-01T04:28:33;9.50;99.90
52565;DHT22;38460;53.106;7.004;2023-04-01T04:30:59;9.50;99.90
52565;DHT22;38460;53.106;7.004;2023-04-01T04:33:25;9.40;99.90
52565;DHT22;38460;53.106;7.004;2023-04-01T04:35:51;9.50;99.90
52565;DHT22;38460;53.106;7.004;2023-04-01T04:38:20;9.50;99.90
52565;DHT22;38460;53.106;7.004;2023-04-01T04:40:45;9.50;99.90
52565;DHT22;38460;53.106;7.004;2023-04-01T04:43:12;9.50;99.90
52565;DHT22;38460;53.106;7.004;2023-04-01T04:45:38;9.40;99.90
52565;DHT22;38460;53.106;7.004;2023-04-01T04:48:05;9.40;99.90
52565;DHT22;38460;53.106;7.004;2023-04-01T04:50:32;9.40;99.90
52565;DHT22;38460;53.106;7.004;2023-04-01T04:52:58;9.40;99.90
52565;DHT22;38460;53.106;7.004;2023-04-01T04:55:23;9.40;99.90
52565;DHT22;38460;53.106;7.004;2023-04-01T04:57:49;9.40;99.90
52565;DHT22;38460;53.106;7.004;2023-04-01T05:00:15;9.40;99.90
52565;DHT22;38460;53.106;7.004;2023-04-01T05:02:41;9.40;99.90
52565;DHT22;38460;53.106;7.004;2023-04-01T05:05:07;9.40;99.90
52565;DHT22;38460;53.106;7.004;2023-04-01T05:07:33;9.40;99.90
52565;DHT22;38460;53.106;7.004;2023-04-01T05:10:00;9.40;99.90
52565;DHT22;38460;53.106;7.004;2023-04-01T05:12:25;9.40;99.90
52565;DHT22;38460;53.106;7.004;2023-04-01T05:14:51;9.40;99.90
52565;DHT22;38460;53.106;7.004;2023-04-01T05:17:17;9.40;99.90
52565;DHT22;38460;53.106;7.004;2023-04-01T05:19:42;9.40;99.90
52565;DHT22;38460;53.106;7.004;2023-04-01T05:22:08;9.40;99.90
52565;DHT22;38460;53.106;7.004;2023-04-01T05:24:34;9.40;99.90
52565;DHT22;38460;53.106;7.004;2023-04-01T05:27:00;9.40;99.90
52565;DHT22;38460;53.106;7.004;2023-04-01T05:29:26;9.40;99.90
52565;DHT22;38460;53.106;7.004;2023-04-01T05:31:52;9.40;99.90
52565;DHT22;38460;53.106;7.004;2023-04-01T05:34:17;9.40;99.90
52565;DHT22;38460;53.106;7.004;2023-04-01T05:36:44;9.40;99.90
52565;DHT22;38460;53.106;7.004;2023-04-01T05:39:09;9.40;99.90
52565;DHT22;38460;53.106;7.004;2023-04-01T05:41:36;9.40;99.90
52565;DHT22;38460;53.106;7.004;2023-04-01T05:44:02;9.40;99.90
52565;DHT22;38460;53.106;7.004;2023-04-01T05:46:28;9.40;99.90
52565;DHT22;38460;53.106;7.004;2023-04-01T05:48:54;9.40;99.90
52565;DHT22;38460;53.106;7.004;2023-04-01T05:51:20;9.40;99.90
52565;DHT22;38460;53.106;7.004;2023-04-01T05:53:46;9.40;99.90
52565;DHT22;38460;53.106;7.004;2023-04-01T05:56:12;9.40;99.90
52565;DHT22;38460;53.106;7.004;2023-04-01T05:58:38;9.40;99.90
52565;DHT22;38460;53.106;7.004;2023-04-01T06:01:10;9.40;99.90
52565;DHT22;38460;53.106;7.004;2023-04-01T06:03:36;9.40;99.90
52565;DHT22;38460;53.106;7.004;2023-04-01T06:06:02;9.40;99.90
52565;DHT22;38460;53.106;7.004;2023-04-01T06:08:30;9.40;99.90
52565;DHT22;38460;53.106;7.004;2023-04-01T06:16:44;9.40;99.90
52565;DHT22;38460;53.106;7.004;2023-04-01T06:19:23;9.40;99.90
52565;DHT22;38460;53.106;7.004;2023-04-01T06:22:12;9.40;99.90
52565;DHT22;38460;53.106;7.004;2023-04-01T06:27:25;9.50;99.90
52565;DHT22;38460;53.106;7.004;2023-04-01T06:36:18;9.50;99.90
52565;DHT22;38460;53.106;7.004;2023-04-01T06:39:18;9.50;99.90
52565;DHT22;38460;53.106;7.004;2023-04-01T06:42:15;9.50;99.90
52565;DHT22;38460;53.106;7.004;2023-04-01T06:45:10;9.50;99.90
52565;DHT22;38460;53.106;7.004;2023-04-01T06:47:45;9.60;99.90
52565;DHT22;38460;53.106;7.004;2023-04-01T06:51:28;9.60;99.90
52565;DHT22;38460;53.106;7.004;2023-04-01T06:53:25;9.60;99.90
52565;DHT22;38460;53.106;7.004;2023-04-01T06:56:12;9.60;99.90
52565;DHT22;38460;53.106;7.004;2023-04-01T06:58:57;9.60;99.90
52565;DHT22;38460;53.106;7.004;2023-04-01T07:01:35;9.70;99.90
52565;DHT22;38460;53.106;7.004;2023-04-01T07:04:32;9.70;99.90
52565;DHT22;38460;53.106;7.004;2023-04-01T07:09:43;9.80;99.90
52565;DHT22;38460;53.106;7.004;2023-04-01T07:14:58;9.90;99.90
52565;DHT22;38460;53.106;7.004;2023-04-01T07:17:30;9.90;99.90
52565;DHT22;38460;53.106;7.004;2023-04-01T07:22:45;10.00;99.90
52565;DHT22;38460;53.106;7.004;2023-04-01T07:25:14;10.00;99.90
52565;DHT22;38460;53.106;7.004;2023-04-01T07:27:44;10.10;99.90
52565;DHT22;38460;53.106;7.004;2023-04-01T07:30:19;10.10;99.90
52565;DHT22;38460;53.106;7.004;2023-04-01T07:33:33;10.20;99.90
52565;DHT22;38460;53.106;7.004;2023-04-01T07:36:14;10.20;99.90
52565;DHT22;38460;53.106;7.004;2023-04-01T07:39:15;10.20;99.90
52565;DHT22;38460;53.106;7.004;2023-04-01T07:42:03;10.20;99.90
52565;DHT22;38460;53.106;7.004;2023-04-01T07:44:48;10.20;99.90
52565;DHT22;38460;53.106;7.004;2023-04-01T07:50:12;10.10;99.90
52565;DHT22;38460;53.106;7.004;2023-04-01T07:55:45;10.20;99.90
52565;DHT22;38460;53.106;7.004;2023-04-01T08:04:32;10.30;99.90
52565;DHT22;38460;53.106;7.004;2023-04-01T08:07:33;10.20;99.90
52565;DHT22;38460;53.106;7.004;2023-04-01T08:15:21;10.20;99.90
52565;DHT22;38460;53.106;7.004;2023-04-01T08:21:24;10.20;99.90
52565;DHT22;38460;53.106;7.004;2023-04-01T08:23:33;10.20;99.90
52565;DHT22;38460;53.106;7.004;2023-04-01T08:26:23;10.20;99.90
52565;DHT22;38460;53.106;7.004;2023-04-01T08:29:06;10.20;99.90
52565;DHT22;38460;53.106;7.004;2023-04-01T08:34:38;10.20;99.90
52565;DHT22;38460;53.106;7.004;2023-04-01T08:37:12;10.30;99.90
52565;DHT22;38460;53.106;7.004;2023-04-01T08:42:41;10.30;99.90
52565;DHT22;38460;53.106;7.004;2023-04-01T08:48:27;10.30;99.90
52565;DHT22;38460;53.106;7.004;2023-04-01T08:51:26;10.30;99.90
52565;DHT22;38460;53.106;7.004;2023-04-01T09:00:13;10.30;99.90
52565;DHT22;38460;53.106;7.004;2023-04-01T09:09:00;10.40;99.90
52565;DHT22;38460;53.106;7.004;2023-04-01T09:11:40;10.40;99.90
52565;DHT22;38460;53.106;7.004;2023-04-01T09:25:38;10.50;99.90
52565;DHT22;38460;53.106;7.004;2023-04-01T09:37:31;10.70;99.90
52565;DHT22;38460;53.106;7.004;2023-04-01T09:39:52;10.60;99.90
52565;DHT22;38460;53.106;7.004;2023-04-01T09:42:42;10.40;99.90
52565;DHT22;38460;53.106;7.004;2023-04-01T09:45:28;10.10;99.90
52565;DHT22;38460;53.106;7.004;2023-04-01T09:48:21;10.00;99.90
52565;DHT22;38460;53.106;7.004;2023-04-01T10:07:56;9.60;99.90
52565;DHT22;38460;53.106;7.004;2023-04-01T10:16:33;9.50;99.90
52565;DHT22;38460;53.106;7.004;2023-04-01T10:21:45;9.50;99.90
52565;DHT22;38460;53.106;7.004;2023-04-01T10:47:24;9.20;99.90
52565;DHT22;38460;53.106;7.004;2023-04-01T10:55:53;9.20;99.90
52565;DHT22;38460;53.106;7.004;2023-04-01T11:24:17;9.60;99.90
52565;DHT22;38460;53.106;7.004;2023-04-01T11:26:55;9.60;99.90
52565;DHT22;38460;53.106;7.004;2023-04-01T11:32:31;9.70;99.90
52565;DHT22;38460;53.106;7.004;2023-04-01T11:40:45;9.50;99.90
52565;DHT22;38460;53.106;7.004;2023-04-01T11:43:37;9.50;99.90
52565;DHT22;38460;53.106;7.004;2023-04-01T11:46:59;9.40;99.90
52565;DHT22;38460;53.106;7.004;2023-04-01T11:54:54;9.40;99.90
52565;DHT22;38460;53.106;7.004;2023-04-01T12:00:25;9.40;99.90
52565;DHT22;38460;53.106;7.004;2023-04-01T12:16:41;9.40;99.90
52565;DHT22;38460;53.106;7.004;2023-04-01T12:24:56;9.50;99.90
52565;DHT22;38460;53.106;7.004;2023-04-01T12:44:16;9.00;99.90
52565;DHT22;38460;53.106;7.004;2023-04-01T12:47:23;9.00;99.90
52565;DHT22;38460;53.106;7.004;2023-04-01T12:50:16;9.10;99.90
52565;DHT22;38460;53.106;7.004;2023-04-01T12:55:50;9.00;99.90
52565;DHT22;38460;53.106;7.004;2023-04-01T13:12:20;9.00;99.90
52565;DHT22;38460;53.106;7.004;2023-04-01T13:29:15;8.70;99.90
52565;DHT22;38460;53.106;7.004;2023-04-01T13:46:15;8.80;99.90
52565;DHT22;38460;53.106;7.004;2023-04-01T13:59:36;8.80;99.90
52565;DHT22;38460;53.106;7.004;2023-04-01T14:11:10;8.60;99.90
52565;DHT22;38460;53.106;7.004;2023-04-01T14:22:29;8.30;99.90
52565;DHT22;38460;53.106;7.004;2023-04-01T14:25:21;8.40;99.90
52565;DHT22;38460;53.106;7.004;2023-04-01T14:31:04;8.40;99.90
52565;DHT22;38460;53.106;7.004;2023-04-01T14:42:14;8.50;99.90
52565;DHT22;38460;53.106;7.004;2023-04-01T14:50:44;8.50;99.90
52565;DHT22;38460;53.106;7.004;2023-04-01T14:55:55;8.30;99.90
52565;DHT22;38460;53.106;7.004;2023-04-01T14:58:21;8.30;99.90
52565;DHT22;38460;53.106;7.004;2023-04-01T15:01:17;8.30;99.90
52565;DHT22;38460;53.106;7.004;2023-04-01T15:09:43;8.40;99.90
52565;DHT22;38460;53.106;7.004;2023-04-01T15:37:55;7.80;99.90
52565;DHT22;38460;53.106;7.004;2023-04-01T15:40:53;7.70;99.90
52565;DHT22;38460;53.106;7.004;2023-04-01T15:46:43;7.60;99.90
52565;DHT22;38460;53.106;7.004;2023-04-01T15:49:32;7.60;99.90
52565;DHT22;38460;53.106;7.004;2023-04-01T15:58:00;7.60;99.90
52565;DHT22;38460;53.106;7.004;2023-04-01T16:00:31;7.50;99.90
52565;DHT22;38460;53.106;7.004;2023-04-01T16:03:20;7.60;99.90
52565;DHT22;38460;53.106;7.004;2023-04-01T16:22:39;7.20;99.90
52565;DHT22;38460;53.106;7.004;2023-04-01T16:25:38;7.10;99.90
52565;DHT22;38460;53.106;7.004;2023-04-01T16:33:54;7.00;99.90
52565;DHT22;38460;53.106;7.004;2023-04-01T16:36:33;6.90;99.90
52565;DHT22;38460;53.106;7.004;2023-04-01T16:44:49;6.80;99.90
52565;DHT22;38460;53.106;7.004;2023-04-01T16:47:21;6.80;99.90
52565;DHT22;38460;53.106;7.004;2023-04-01T16:58:08;6.60;99.90
52565;DHT22;38460;53.106;7.004;2023-04-01T17:00:41;6.60;99.90
52565;DHT22;38460;53.106;7.004;2023-04-01T17:03:15;6.60;99.90
52565;DHT22;38460;53.106;7.004;2023-04-01T17:05:56;6.60;99.90
52565;DHT22;38460;53.106;7.004;2023-04-01T17:08:53;6.60;99.90
52565;DHT22;38460;53.106;7.004;2023-04-01T17:11:37;6.60;99.90
52565;DHT22;38460;53.106;7.004;2023-04-01T17:20:49;6.50;99.90
52565;DHT22;38460;53.106;7.004;2023-04-01T17:26:37;6.40;99.90
52565;DHT22;38460;53.106;7.004;2023-04-01T17:35:22;6.30;99.90
52565;DHT22;38460;53.106;7.004;2023-04-01T17:43:56;6.20;99.90
52565;DHT22;38460;53.106;7.004;2023-04-01T18:06:03;6.10;99.90
52565;DHT22;38460;53.106;7.004;2023-04-01T18:11:48;6.00;99.90
52565;DHT22;38460;53.106;7.004;2023-04-01T18:14:52;6.00;99.90
52565;DHT22;38460;53.106;7.004;2023-04-01T18:17:32;6.00;99.90
52565;DHT22;38460;53.106;7.004;2023-04-01T18:20:33;6.00;99.90
52565;DHT22;38460;53.106;7.004;2023-04-01T18:23:04;6.00;99.90
52565;DHT22;38460;53.106;7.004;2023-04-01T18:25:38;6.00;99.90
52565;DHT22;38460;53.106;7.004;2023-04-01T18:30:44;6.00;99.90
52565;DHT22;38460;53.106;7.004;2023-04-01T18:33:36;6.00;99.90
52565;DHT22;38460;53.106;7.004;2023-04-01T18:36:32;6.00;99.90
52565;DHT22;38460;53.106;7.004;2023-04-01T18:39:04;6.00;99.90
52565;DHT22;38460;53.106;7.004;2023-04-01T18:41:47;6.00;99.90
52565;DHT22;38460;53.106;7.004;2023-04-01T18:44:30;5.90;99.90
52565;DHT22;38460;53.106;7.004;2023-04-01T18:52:41;5.90;99.90
52565;DHT22;38460;53.106;7.004;2023-04-01T18:57:55;5.80;99.90
52565;DHT22;38460;53.106;7.004;2023-04-01T19:00:44;5.80;99.90
52565;DHT22;38460;53.106;7.004;2023-04-01T19:03:20;5.80;99.90
52565;DHT22;38460;53.106;7.004;2023-04-01T19:05:50;5.80;99.90
52565;DHT22;38460;53.106;7.004;2023-04-01T19:08:32;5.70;99.90
52565;DHT22;38460;53.106;7.004;2023-04-01T19:18:56;5.70;99.90
52565;DHT22;38460;53.106;7.004;2023-04-01T19:21:33;5.70;99.90
52565;DHT22;38460;53.106;7.004;2023-04-01T19:37:31;5.50;99.90
52565;DHT22;38460;53.106;7.004;2023-04-01T19:43:15;5.40;99.90
52565;DHT22;38460;53.106;7.004;2023-04-01T19:49:13;5.40;99.90
52565;DHT22;38460;53.106;7.004;2023-04-01T20:04:42;5.30;99.90
52565;DHT22;38460;53.106;7.004;2023-04-01T20:07:27;5.30;99.90
52565;DHT22;38460;53.106;7.004;2023-04-01T20:15:46;5.20;99.90
52565;DHT22;38460;53.106;7.004;2023-04-01T20:18:26;5.20;99.90
52565;DHT22;38460;53.106;7.004;2023-04-01T20:20:57;5.20;99.90
52565;DHT22;38460;53.106;7.004;2023-04-01T20:26:01;5.20;99.90
52565;DHT22;38460;53.106;7.004;2023-04-01T20:28:44;5.20;99.90
52565;DHT22;38460;53.106;7.004;2023-04-01T20:31:24;5.20;99.90
52565;DHT22;38460;53.106;7.004;2023-04-01T20:34:01;5.20;99.90
52565;DHT22;38460;53.106;7.004;2023-04-01T20:45:56;5.10;99.90
52565;DHT22;38460;53.106;7.004;2023-04-01T20:51:06;5.10;99.90
52565;DHT22;38460;53.106;7.004;2023-04-01T20:53:43;5.10;99.90
52565;DHT22;38460;53.106;7.004;2023-04-01T20:56:32;5.00;99.90
52565;DHT22;38460;53.106;7.004;2023-04-01T21:07:49;5.30;99.90
52565;DHT22;38460;53.106;7.004;2023-04-01T21:10:37;5.00;99.90
52565;DHT22;38460;53.106;7.004;2023-04-01T21:27:34;4.80;99.90
52565;DHT22;38460;53.106;7.004;2023-04-01T21:38:23;4.80;99.90
52565;DHT22;38460;53.106;7.004;2023-04-01T21:43:40;4.70;99.90
52565;DHT22;38460;53.106;7.004;2023-04-01T22:06:39;4.60;99.90
52565;DHT22;38460;53.106;7.004;2023-04-01T22:12:19;4.50;99.90
52565;DHT22;38460;53.106;7.004;2023-04-01T22:15:14;4.50;99.90
52565;DHT22;38460;53.106;7.004;2023-04-01T22:17:51;4.50;99.90
52565;DHT22;38460;53.106;7.004;2023-04-01T22:20:33;4.50;99.90
52565;DHT22;38460;53.106;7.004;2023-04-01T22:26:00;4.50;99.90
52565;DHT22;38460;53.106;7.004;2023-04-01T22:31:19;4.50;99.90
52565;DHT22;38460;53.106;7.004;2023-04-01T22:41:37;4.50;99.90
52565;DHT22;38460;53.106;7.004;2023-04-01T22:44:05;4.50;99.90
52565;DHT22;38460;53.106;7.004;2023-04-01T22:46:56;4.50;99.90
52565;DHT22;38460;53.106;7.004;2023-04-01T22:49:37;4.40;99.90
52565;DHT22;38460;53.106;7.004;2023-04-01T22:54:58;4.40;99.90
52565;DHT22;38460;53.106;7.004;2023-04-01T22:57:40;4.30;99.90
52565;DHT22;38460;53.106;7.004;2023-04-01T23:00:14;4.20;99.90
52565;DHT22;38460;53.106;7.004;2023-04-01T23:02:59;4.10;99.90
52565;DHT22;38460;53.106;7.004;2023-04-01T23:05:27;3.90;99.90
52565;DHT22;38460;53.106;7.004;2023-04-01T23:10:57;3.80;99.90
52565;DHT22;38460;53.106;7.004;2023-04-01T23:13:29;3.80;99.90
52565;DHT22;38460;53.106;7.004;2023-04-01T23:15:57;3.70;99.90
52565;DHT22;38460;53.106;7.004;2023-04-01T23:26:48;3.70;99.90
52565;DHT22;38460;53.106;7.004;2023-04-01T23:29:18;3.70;99.90
52565;DHT22;38460;53.106;7.004;2023-04-01T23:31:45;3.70;99.90
52565;DHT22;38460;53.106;7.004;2023-04-01T23:36:49;3.70;99.90
52565;DHT22;38460;53.106;7.004;2023-04-01T23:39:23;3.70;99.90
52565;DHT22;38460;53.106;7.004;2023-04-01T23:41:52;3.70;99.90
52565;DHT22;38460;53.106;7.004;2023-04-01T23:44:19;3.60;99.90
52565;DHT22;38460;53.106;7.004;2023-04-01T23:46:47;3.80;99.90
52565;DHT22;38460;53.106;7.004;2023-04-01T23:49:18;3.60;99.90
52565;DHT22;38460;53.106;7.004;2023-04-01T23:54:48;3.50;99.90
52565;DHT22;38460;53.106;7.004;2023-04-01T23:57:24;3.50;99.90
